createdAt,value
2024-02-21T00:00:20.999Z,30.00
2024-02-21T00:05:28.643Z,26.50
2024-02-21T00:10:37.771Z,27.00
2024-02-21T00:15:43.406Z,31.00
2024-02-21T00:20:48.462Z,12.00
2024-02-21T00:25:53.620Z,20.00
2024-02-21T00:31:00.203Z,18.00
2024-02-21T00:36:05.432Z,15.00
2024-02-21T00:46:15.601Z,12.00
2024-02-21T00:51:20.642Z,14.50
2024-02-21T00:56:26.308Z,12.00
2024-02-21T01:01:32.949Z,14.00
2024-02-21T01:06:39.192Z,15.00
2024-02-21T01:11:45.804Z,12.50
2024-02-21T01:16:51.523Z,9.00
2024-02-21T01:21:57.801Z,13.33
2024-02-21T01:27:02.790Z,10.00
2024-02-21T01:37:15.303Z,6.00
2024-02-21T01:42:21.572Z,30.67
2024-02-21T01:47:28.090Z,6.00
2024-02-21T01:52:34.406Z,7.00
2024-02-21T01:57:40.762Z,5.00
2024-02-21T02:02:48.723Z,7.33
2024-02-21T02:07:55.105Z,6.67
2024-02-21T02:13:00.533Z,8.00
2024-02-21T02:18:05.760Z,11.50
2024-02-21T02:23:13.214Z,10.50
2024-02-21T02:28:18.421Z,14.33
2024-02-21T02:33:23.740Z,12.67
2024-02-21T02:38:28.973Z,6.00
2024-02-21T02:43:35.668Z,5.00
2024-02-21T02:48:41.305Z,10.00
2024-02-21T02:53:48.371Z,19.50
2024-02-21T02:58:54.504Z,0.00
2024-02-21T03:03:59.759Z,6.00
2024-02-21T03:09:10.779Z,10.00
2024-02-21T03:14:15.810Z,9.00
2024-02-21T03:19:22.750Z,6.00
2024-02-21T03:24:28.285Z,4.00
2024-02-21T03:29:39.197Z,9.00
2024-02-21T03:34:45.239Z,8.00
2024-02-21T03:39:51.190Z,8.00
2024-02-21T03:44:56.773Z,9.50
2024-02-21T03:50:02.629Z,2.50
2024-02-21T03:55:10.145Z,9.50
2024-02-21T04:00:15.661Z,12.67
2024-02-21T04:05:21.657Z,11.00
2024-02-21T04:10:28.118Z,18.00
2024-02-21T04:15:33.305Z,12.00
2024-02-21T04:20:40.259Z,25.00
2024-02-21T04:25:48.162Z,1.00
2024-02-21T04:30:54.043Z,0.00
2024-02-21T04:36:02.472Z,0.00
2024-02-21T04:41:09.494Z,0.00
2024-02-21T04:46:14.642Z,0.00
2024-02-21T04:51:19.907Z,0.00
2024-02-21T04:56:25.198Z,0.00
2024-02-21T05:01:31.738Z,0.00
2024-02-21T05:06:42.821Z,0.00
2024-02-21T05:11:50.917Z,0.00
2024-02-21T05:16:59.796Z,0.00
2024-02-21T05:22:07.709Z,0.00
2024-02-21T05:32:39.024Z,0.00
2024-02-21T05:37:45.206Z,0.00
2024-02-21T05:42:50.508Z,0.00
2024-02-21T05:48:03.408Z,0.00
2024-02-21T05:53:08.654Z,0.67
2024-02-21T05:58:16.224Z,0.00
2024-02-21T06:03:23.115Z,0.00
2024-02-21T06:08:29.409Z,0.00
2024-02-21T06:13:35.248Z,0.00
2024-02-21T06:23:49.911Z,0.00
2024-02-21T06:29:00.086Z,0.00
2024-02-21T06:34:06.596Z,0.00
2024-02-21T06:39:14.540Z,0.00
2024-02-21T06:44:25.028Z,0.00
2024-02-21T06:49:34.136Z,0.00
2024-02-21T06:54:43.146Z,0.00
2024-02-21T06:59:49.623Z,0.00
2024-02-21T07:04:56.392Z,0.00
2024-02-21T07:10:05.346Z,0.00
2024-02-21T07:15:19.344Z,0.00
2024-02-21T07:25:34.816Z,0.00
2024-02-21T07:30:44.440Z,0.00
2024-02-21T07:35:50.857Z,0.00
2024-02-21T07:40:58.564Z,0.00
2024-02-21T07:46:11.360Z,15.75
2024-02-21T07:51:21.708Z,0.00
2024-02-21T07:56:33.124Z,0.00
2024-02-21T08:01:41.696Z,0.00
2024-02-21T08:06:48.864Z,0.00
2024-02-21T08:11:56.918Z,0.00
2024-02-21T08:17:03.228Z,0.00
2024-02-21T08:22:09.809Z,0.00
2024-02-21T08:27:16.261Z,0.00
2024-02-21T08:32:24.452Z,0.00
2024-02-21T08:37:35.240Z,0.00
2024-02-21T08:42:43.420Z,0.00
2024-02-21T08:47:49.839Z,0.00
2024-02-21T08:52:58.077Z,0.00
2024-02-21T08:58:07.193Z,0.00
2024-02-21T09:03:16.799Z,5.33
2024-02-21T09:08:27.670Z,0.00
2024-02-21T09:13:34.327Z,17.75
2024-02-21T09:18:40.339Z,30.33
2024-02-21T09:23:48.045Z,13.33
2024-02-21T09:28:54.600Z,24.50
2024-02-21T09:34:00.919Z,20.67
2024-02-21T09:39:07.477Z,17.25
2024-02-21T09:44:17.182Z,15.33
2024-02-21T09:49:40.310Z,15.67
2024-02-21T09:54:47.740Z,25.67
2024-02-21T09:59:55.682Z,24.50
2024-02-21T10:05:03.571Z,25.75
2024-02-21T10:10:10.438Z,29.25
2024-02-21T10:15:17.060Z,26.50
2024-02-21T10:20:23.121Z,19.50
2024-02-21T10:25:29.324Z,18.50
2024-02-21T10:30:36.904Z,18.50
2024-02-21T10:35:43.914Z,24.33
2024-02-21T10:40:51.629Z,13.75
2024-02-21T10:46:03.785Z,12.00
2024-02-21T10:51:19.827Z,11.00
2024-02-21T10:56:30.803Z,12.00
2024-02-21T11:01:40.637Z,6.00
2024-02-21T11:06:48.016Z,8.00
2024-02-21T11:11:54.497Z,8.50
2024-02-21T11:17:02.369Z,5.00
2024-02-21T11:22:22.424Z,6.50
2024-02-21T11:27:28.740Z,7.50
2024-02-21T11:32:35.812Z,10.00
2024-02-21T11:37:43.361Z,8.00
2024-02-21T11:42:50.673Z,8.00
2024-02-21T11:47:57.232Z,5.33
2024-02-21T11:53:03.476Z,4.00
2024-02-21T11:58:10.513Z,10.00
2024-02-21T12:03:19.735Z,9.00
2024-02-21T12:08:28.430Z,17.00
2024-02-21T12:18:42.591Z,0.00
2024-02-21T12:23:49.944Z,0.00
2024-02-21T12:28:58.334Z,0.00
2024-02-21T12:34:05.253Z,0.00
2024-02-21T12:44:20.937Z,7.50
2024-02-21T12:49:26.968Z,4.50
2024-02-21T12:54:35.142Z,14.00
2024-02-21T12:59:41.805Z,4.00
2024-02-21T13:04:49.458Z,5.00
2024-02-21T13:09:57.507Z,6.00
2024-02-21T13:15:05.132Z,9.50
2024-02-21T13:20:13.589Z,6.00
2024-02-21T13:25:23.435Z,8.00
2024-02-21T13:30:30.272Z,12.67
2024-02-21T13:35:38.374Z,10.00
2024-02-21T13:40:45.860Z,12.50
2024-02-21T13:46:08.803Z,12.67
2024-02-21T13:51:18.820Z,8.00
2024-02-21T13:56:26.396Z,6.00
2024-02-21T14:01:35.476Z,8.00
2024-02-21T14:06:47.035Z,7.50
2024-02-21T14:11:55.718Z,7.00
2024-02-21T14:17:01.817Z,12.00
2024-02-21T14:22:08.506Z,4.00
2024-02-21T14:27:14.971Z,6.00
2024-02-21T14:32:20.189Z,4.50
2024-02-21T14:37:25.460Z,4.50
2024-02-21T14:42:31.057Z,3.50
2024-02-21T14:47:37.543Z,4.00
2024-02-21T14:52:44.288Z,6.00
2024-02-21T14:57:49.778Z,8.00
2024-02-21T15:02:55.766Z,6.00
2024-02-21T15:08:01.458Z,4.00
2024-02-21T15:13:08.773Z,6.00
2024-02-21T15:18:14.482Z,5.50
2024-02-21T15:28:28.433Z,5.00
2024-02-21T15:33:36.090Z,4.00
2024-02-21T15:38:43.392Z,4.00
2024-02-21T15:43:49.695Z,6.00
2024-02-21T15:48:57.451Z,7.50
2024-02-21T15:54:03.534Z,8.00
2024-02-21T15:59:09.101Z,6.67
2024-02-21T16:04:15.712Z,10.00
2024-02-21T16:09:21.404Z,11.33
2024-02-21T16:14:28.885Z,4.67
2024-02-21T16:19:37.081Z,4.00
2024-02-21T16:24:42.419Z,12.67
2024-02-21T16:29:47.547Z,5.00
2024-02-21T16:34:54.049Z,8.00
2024-02-21T16:39:59.114Z,4.00
2024-02-21T16:45:04.932Z,7.00
2024-02-21T16:50:10.710Z,8.00
2024-02-21T16:55:17.145Z,8.00
2024-02-21T17:00:25.382Z,7.00
2024-02-21T17:05:32.056Z,6.00
2024-02-21T17:10:37.330Z,6.50
2024-02-21T17:15:43.241Z,8.00
2024-02-21T17:20:50.614Z,6.00
2024-02-21T17:25:55.837Z,10.00
2024-02-21T17:31:01.262Z,12.00
2024-02-21T17:36:06.877Z,8.00
2024-02-21T17:41:12.854Z,10.00
2024-02-21T17:46:18.665Z,8.00
2024-02-21T17:51:25.537Z,7.00
2024-02-21T17:56:30.576Z,8.00
2024-02-21T18:01:36.244Z,8.00
2024-02-21T18:06:42.095Z,8.67
2024-02-21T18:11:50.859Z,15.00
2024-02-21T18:16:55.980Z,8.00
2024-02-21T18:22:01.460Z,10.00
2024-02-21T18:27:07.135Z,8.50
2024-02-21T18:32:13.673Z,6.00
2024-02-21T18:37:20.053Z,7.50
2024-02-21T18:42:25.691Z,11.00
2024-02-21T18:47:31.162Z,6.00
2024-02-21T18:52:36.618Z,6.00
2024-02-21T18:57:42.224Z,12.00
2024-02-21T19:02:50.952Z,13.33
2024-02-21T19:07:56.189Z,9.33
2024-02-21T19:13:01.765Z,6.00
2024-02-21T19:18:08.274Z,10.00
2024-02-21T19:23:14.467Z,12.00
2024-02-21T19:28:22.480Z,18.00
2024-02-21T19:33:29.176Z,4.67
2024-02-21T19:38:35.132Z,4.00
2024-02-21T19:43:41.340Z,8.00
2024-02-21T19:48:47.223Z,7.50
2024-02-21T19:54:05.037Z,6.00
2024-02-21T19:59:18.525Z,12.00
2024-02-21T20:04:23.575Z,6.00
2024-02-21T20:09:28.714Z,4.00
2024-02-21T20:14:33.845Z,9.33
2024-02-21T20:19:40.725Z,6.00
2024-02-21T20:24:46.635Z,6.00
2024-02-21T20:29:52.977Z,10.50
2024-02-21T20:35:00.253Z,8.00
2024-02-21T20:40:09.425Z,8.00
2024-02-21T20:45:15.072Z,6.00
2024-02-21T20:50:24.004Z,6.00
2024-02-21T20:55:29.327Z,7.00
2024-02-21T21:00:36.192Z,19.33
2024-02-21T21:05:41.535Z,6.50
2024-02-21T21:10:46.735Z,5.33
2024-02-21T21:15:52.262Z,9.50
2024-02-21T21:20:57.990Z,4.00
2024-02-21T21:26:04.038Z,6.50
2024-02-21T21:36:15.714Z,8.00
2024-02-21T21:41:22.138Z,15.00
2024-02-21T21:46:27.446Z,14.00
2024-02-21T21:51:35.220Z,9.50
2024-02-21T21:56:40.756Z,10.67
2024-02-21T22:01:46.452Z,20.00
2024-02-21T22:06:52.752Z,8.00
2024-02-21T22:11:57.987Z,8.00
2024-02-21T22:17:04.416Z,10.67
2024-02-21T22:22:11.665Z,6.00
2024-02-21T22:27:16.917Z,5.33
2024-02-21T22:32:23.086Z,15.00
2024-02-21T22:37:28.427Z,6.00
2024-02-21T22:42:33.561Z,13.33
2024-02-21T22:47:38.830Z,22.00
2024-02-21T22:57:50.839Z,5.00
2024-02-21T23:02:56.340Z,10.00
2024-02-21T23:08:01.506Z,8.00
2024-02-21T23:13:08.780Z,9.33
2024-02-21T23:18:13.901Z,12.00
2024-02-21T23:23:20.217Z,10.67
2024-02-21T23:28:25.355Z,8.67
2024-02-21T23:33:36.918Z,8.50
2024-02-21T23:38:43.037Z,11.33
2024-02-21T23:43:51.236Z,9.00
2024-02-21T23:49:03.855Z,8.00
2024-02-21T23:54:09.010Z,10.00
2024-02-21T23:59:14.271Z,13.50
